Time;durP1;ratioP1;P1;durP2;ratioP2;P2;SDS_P1;SDS_P2;PMS_P1;PMS_P2;Temp;Humidity;BMP_temperature;BMP_pressure;BME280_temperature;BME280_humidity;BME280_pressure;Samples;Min_cycle;Max_cycle;Signal;HPM_P1;HPM_P2
2023/02/28 00:00:42;;;;;;;4.00;3.22;;;-1.30;1.00;;;;;;7362495;19;20018;-69
2023/02/28 00:03:12;;;;;;;7.65;3.30;;;-1.30;1.00;;;;;;7391334;19;20614;-69
2023/02/28 00:05:42;;;;;;;5.53;3.63;;;-1.30;1.00;;;;;;7368456;19;20032;-69
2023/02/28 00:08:13;;;;;;;4.50;3.55;;;-1.30;1.00;;;;;;7367948;19;20025;-69
2023/02/28 00:10:45;;;;;;;4.50;3.65;;;-1.30;1.00;;;;;;7367065;19;20065;-70
2023/02/28 00:13:15;;;;;;;4.72;3.45;;;-1.30;1.00;;;;;;7367726;19;20379;-71
2023/02/28 00:15:48;;;;;;;5.72;3.85;;;-1.30;1.00;;;;;;7368673;19;20014;-70
2023/02/28 00:18:18;;;;;;;6.53;3.55;;;-1.40;1.00;;;;;;7387992;19;20464;-70
2023/02/28 00:20:48;;;;;;;4.63;3.15;;;-1.40;1.00;;;;;;7365094;19;20609;-70
2023/02/28 00:23:17;;;;;;;5.38;3.58;;;-1.40;1.00;;;;;;7368094;19;20492;-70
2023/02/28 00:25:47;;;;;;;6.43;3.72;;;-1.40;1.00;;;;;;7367639;19;20387;-70
2023/02/28 00:28:17;;;;;;;9.52;3.88;;;-1.40;1.00;;;;;;7366186;19;20461;-69
2023/02/28 00:30:50;;;;;;;5.80;3.45;;;-1.40;1.00;;;;;;7365129;19;20025;-71
2023/02/28 00:33:20;;;;;;;4.70;3.60;;;-1.40;1.00;;;;;;7390561;19;20011;-71
2023/02/28 00:35:49;;;;;;;4.70;3.50;;;-1.40;1.00;;;;;;7367463;19;20018;-70
2023/02/28 00:38:19;;;;;;;4.38;3.28;;;-1.40;1.00;;;;;;7365114;19;20026;-69
2023/02/28 00:40:49;;;;;;;6.20;3.63;;;-1.40;1.00;;;;;;7364769;19;20011;-70
2023/02/28 00:43:19;;;;;;;5.50;3.92;;;-1.40;1.00;;;;;;7367660;19;20013;-70
2023/02/28 00:45:51;;;;;;;5.88;3.90;;;-1.40;1.00;;;;;;7365007;19;20405;-70
2023/02/28 00:48:21;;;;;;;10.02;4.50;;;-1.40;1.00;;;;;;7377867;19;20023;-70
2023/02/28 00:50:51;;;;;;;7.70;3.97;;;-1.40;1.00;;;;;;7384116;19;20026;-71
2023/02/28 00:53:21;;;;;;;7.22;4.10;;;-1.50;1.00;;;;;;7364468;19;20010;-69
2023/02/28 00:55:52;;;;;;;5.53;4.05;;;-1.50;1.00;;;;;;7365213;19;20146;-69
2023/02/28 00:58:22;;;;;;;5.95;4.07;;;-1.40;1.00;;;;;;7364769;19;20039;-70
2023/02/28 01:00:54;;;;;;;5.80;4.25;;;-1.50;1.00;;;;;;7364496;19;20021;-69
2023/02/28 01:03:26;;;;;;;7.13;4.25;;;-1.50;1.00;;;;;;7367329;19;20078;-70
2023/02/28 01:05:55;;;;;;;5.18;3.92;;;-1.40;1.00;;;;;;7387685;19;20098;-69
2023/02/28 01:08:26;;;;;;;6.90;4.93;;;-1.50;1.00;;;;;;7365037;19;20010;-69
2023/02/28 01:10:56;;;;;;;5.78;4.50;;;-1.50;1.00;;;;;;7364904;19;20427;-69
2023/02/28 01:13:26;;;;;;;5.57;4.05;;;-1.50;1.00;;;;;;7364681;19;20011;-69
2023/02/28 01:15:59;;;;;;;7.22;4.40;;;-1.50;1.00;;;;;;7365783;19;20018;-70
2023/02/28 01:18:29;;;;;;;5.60;4.25;;;-1.50;1.00;;;;;;7365119;19;20516;-69
2023/02/28 01:20:59;;;;;;;5.93;4.13;;;-1.50;1.00;;;;;;7387377;19;20414;-70
2023/02/28 01:23:29;;;;;;;8.70;4.63;;;-1.50;1.00;;;;;;7366366;19;20500;-70
2023/02/28 01:25:58;;;;;;;6.07;4.07;;;-1.50;1.00;;;;;;7364477;19;20477;-70
2023/02/28 01:28:29;;;;;;;6.88;4.00;;;-1.60;1.00;;;;;;7363982;19;20010;-70
2023/02/28 01:31:02;;;;;;;7.05;4.38;;;-1.50;1.00;;;;;;7365950;19;20011;-68
2023/02/28 01:33:32;;;;;;;6.78;5.00;;;-1.50;1.00;;;;;;7366119;19;20029;-68
2023/02/28 01:36:02;;;;;;;6.82;4.30;;;-1.60;1.00;;;;;;7386854;19;20070;-69
2023/02/28 01:38:32;;;;;;;6.13;4.50;;;-1.60;1.00;;;;;;7363385;19;20494;-69
2023/02/28 01:41:02;;;;;;;7.05;4.47;;;-1.60;1.00;;;;;;7364705;19;20021;-70
2023/02/28 01:43:34;;;;;;;7.15;4.40;;;-1.70;1.00;;;;;;7363683;19;20019;-71
2023/02/28 01:46:07;;;;;;;6.65;4.10;;;-1.60;1.00;;;;;;7363156;19;20446;-70
2023/02/28 01:48:42;;;;;;;6.07;4.72;;;-1.70;1.00;;;;;;7363506;19;20014;-70
2023/02/28 01:51:15;;;;;;;7.10;4.45;;;-1.70;1.00;;;;;;7386095;19;20432;-69
2023/02/28 01:53:51;;;;;;;6.82;4.30;;;-1.70;1.00;;;;;;7365898;19;20021;-71
2023/02/28 01:56:26;;;;;;;6.47;4.30;;;-1.80;1.00;;;;;;7361158;19;20007;-70
2023/02/28 01:58:57;;;;;;;6.53;4.88;;;-1.80;1.00;;;;;;7362968;19;20014;-71
2023/02/28 02:01:31;;;;;;;8.07;5.20;;;-1.80;1.00;;;;;;7361471;19;20010;-71
2023/02/28 02:04:04;;;;;;;6.47;4.50;;;-1.90;1.00;;;;;;7364410;19;20619;-70
2023/02/28 02:06:38;;;;;;;6.40;4.80;;;-1.80;1.00;;;;;;7363306;19;20042;-70
2023/02/28 02:09:08;;;;;;;7.07;4.65;;;-1.80;1.00;;;;;;7386588;19;20026;-70
2023/02/28 02:11:39;;;;;;;5.82;4.47;;;-1.80;1.00;;;;;;7362203;19;20091;-71
2023/02/28 02:14:34;;;;;;;6.72;5.03;;;-1.80;1.00;;;;;;7365249;19;20015;-71
2023/02/28 02:17:20;;;;;;;6.57;4.80;;;-1.90;1.00;;;;;;7362213;19;20010;-70
2023/02/28 02:20:34;;;;;;;8.05;4.60;;;-1.90;1.00;;;;;;7358583;19;20013;-71
2023/02/28 02:23:23;;;;;;;7.70;4.90;;;-1.90;1.00;;;;;;7364230;19;20018;-71
2023/02/28 02:25:57;;;;;;;6.30;4.97;;;-1.90;1.00;;;;;;7361613;19;20038;-71
2023/02/28 02:28:57;;;;;;;7.30;5.13;;;-1.80;1.00;;;;;;7364696;19;20471;-71
2023/02/28 02:31:36;;;;;;;7.85;4.93;;;-1.90;1.00;;;;;;7359487;19;20021;-70
2023/02/28 02:34:30;;;;;;;6.95;4.72;;;-1.90;1.00;;;;;;7360338;19;20014;-71
2023/02/28 02:37:11;;;;;;;5.65;4.65;;;-2.00;1.00;;;;;;7361184;19;20091;-71
2023/02/28 02:39:49;;;;;;;7.47;4.63;;;-2.00;1.00;;;;;;7362048;19;20020;-69
2023/02/28 02:42:26;;;;;;;5.72;4.50;;;-2.00;1.00;;;;;;7382566;19;20068;-71
2023/02/28 02:45:02;;;;;;;8.13;5.05;;;-2.00;1.00;;;;;;7361136;19;20034;-71
2023/02/28 02:47:34;;;;;;;6.03;4.53;;;-1.90;1.00;;;;;;7362280;19;20395;-70
2023/02/28 02:50:10;;;;;;;8.05;4.53;;;-1.90;1.00;;;;;;7356827;19;20077;-70
2023/02/28 02:52:45;;;;;;;6.57;4.78;;;-2.00;1.00;;;;;;7361329;19;20482;-72
2023/02/28 02:55:17;;;;;;;7.82;5.00;;;-1.90;1.00;;;;;;7361152;19;20014;-70
2023/02/28 02:57:50;;;;;;;8.45;4.88;;;-1.90;1.00;;;;;;7362552;19;20092;-71
2023/02/28 03:00:24;;;;;;;6.97;5.05;;;-2.00;1.00;;;;;;7378408;19;20075;-70
2023/02/28 03:02:57;;;;;;;7.72;4.70;;;-2.00;1.00;;;;;;7363516;19;20007;-70
2023/02/28 03:05:34;;;;;;;7.50;5.05;;;-1.90;1.00;;;;;;7360372;19;20489;-70
2023/02/28 03:08:06;;;;;;;7.60;5.22;;;-1.90;1.00;;;;;;7360482;19;20086;-70
2023/02/28 03:10:40;;;;;;;8.32;4.97;;;-1.90;1.00;;;;;;7359508;19;20011;-70
2023/02/28 03:13:50;;;;;;;5.43;4.40;;;-1.80;1.00;;;;;;7360590;19;20537;-71
2023/02/28 03:16:37;;;;;;;7.03;4.75;;;-1.80;1.00;;;;;;7360786;19;20391;-70
2023/02/28 03:19:33;;;;;;;7.47;5.47;;;-1.80;1.00;;;;;;7358338;19;20010;-70
2023/02/28 03:22:22;;;;;;;7.38;4.32;;;-1.80;1.00;;;;;;7360507;19;20021;-70
2023/02/28 03:24:59;;;;;;;6.65;4.90;;;-1.80;1.00;;;;;;7358691;19;20398;-71
2023/02/28 03:27:32;;;;;;;7.18;4.78;;;-1.80;1.00;;;;;;7361299;19;20015;-70
2023/02/28 03:30:05;;;;;;;7.20;4.47;;;-1.80;1.00;;;;;;7382184;19;20018;-71
2023/02/28 03:32:41;;;;;;;8.88;5.10;;;-1.70;1.00;;;;;;7358827;19;20014;-70
2023/02/28 03:35:21;;;;;;;5.93;4.50;;;-1.70;1.00;;;;;;7363533;19;20011;-70
2023/02/28 03:37:59;;;;;;;9.57;4.63;;;-1.70;1.00;;;;;;7366607;19;20015;-71
2023/02/28 03:40:33;;;;;;;8.82;5.45;;;-1.70;1.00;;;;;;7363294;19;20078;-71
2023/02/28 03:43:06;;;;;;;;;;;-1.60;1.00;;;;;;7367920;19;20029;-71
2023/02/28 03:45:40;;;;;;;8.40;5.32;;;-1.50;1.00;;;;;;7367361;19;19915;-71
2023/02/28 03:48:14;;;;;;;;;;;-1.50;1.00;;;;;;7390907;19;20060;-70
2023/02/28 03:50:46;;;;;;;8.97;5.90;;;-1.50;1.00;;;;;;7363574;19;19921;-71
2023/02/28 03:53:24;;;;;;;7.55;5.78;;;-1.50;1.00;;;;;;7366744;19;20050;-71
2023/02/28 03:55:59;;;;;;;7.75;5.85;;;-1.40;1.00;;;;;;7365903;19;20017;-71
2023/02/28 03:58:33;;;;;;;7.43;5.35;;;-1.40;1.00;;;;;;7367992;19;20053;-71
2023/02/28 04:01:08;;;;;;;8.88;5.68;;;-1.30;1.00;;;;;;7366754;19;20021;-70
2023/02/28 04:03:39;;;;;;;7.13;5.15;;;-1.30;1.00;;;;;;7365792;19;20098;-70
2023/02/28 04:06:15;;;;;;;8.73;5.60;;;-1.30;1.00;;;;;;7388248;19;20096;-70
2023/02/28 04:08:48;;;;;;;8.30;5.65;;;-1.30;1.00;;;;;;7367515;19;20086;-70
2023/02/28 04:11:24;;;;;;;7.70;4.93;;;-1.30;1.00;;;;;;7364200;19;20389;-70
2023/02/28 04:13:54;;;;;;;7.82;5.45;;;-1.30;1.00;;;;;;7366111;19;20019;-70
2023/02/28 04:16:24;;;;;;;11.25;5.18;;;-1.30;1.00;;;;;;7366050;19;20463;-70
2023/02/28 04:19:05;;;;;;;9.75;5.65;;;-1.30;1.00;;;;;;7364219;19;20107;-71
2023/02/28 04:21:37;;;;;;;8.55;5.22;;;-1.20;1.00;;;;;;7365383;19;20019;-71
2023/02/28 04:24:13;;;;;;;7.55;5.60;;;-1.20;1.00;;;;;;7387076;19;20711;-70
2023/02/28 04:26:46;;;;;;;8.27;6.03;;;-1.20;1.00;;;;;;7366344;19;20044;-70
2023/02/28 04:29:20;;;;;;;10.40;6.22;;;-1.20;1.00;;;;;;7364895;19;20010;-70
2023/02/28 04:31:50;;;;;;;;;;;-1.20;1.00;;;;;;7365261;19;20510;-70
2023/02/28 04:34:20;;;;;;;9.30;6.07;;;-1.20;1.00;;;;;;7365302;19;20006;-70
2023/02/28 04:36:53;;;;;;;8.07;5.60;;;-1.20;1.00;;;;;;7365697;19;20102;-70
2023/02/28 04:39:44;;;;;;;7.60;5.60;;;-1.20;1.00;;;;;;7364650;19;20473;-70
2023/02/28 04:42:15;;;;;;;9.52;6.25;;;-1.20;1.00;;;;;;7386842;19;20088;-71
2023/02/28 04:44:44;;;;;;;10.60;5.45;;;-1.20;1.00;;;;;;7365329;19;20014;-71
2023/02/28 04:47:14;;;;;;;10.10;5.35;;;-1.20;1.00;;;;;;7365839;19;20025;-71
2023/02/28 04:49:44;;;;;;;9.57;5.22;;;-1.20;1.00;;;;;;7362355;19;20110;-69
2023/02/28 04:52:14;;;;;;;9.02;6.15;;;-1.20;1.00;;;;;;7364268;19;20094;-70
2023/02/28 04:54:46;;;;;;;10.00;6.63;;;-1.20;1.00;;;;;;7366556;19;20485;-70
2023/02/28 04:57:16;;;;;;;8.43;5.38;;;-1.10;1.00;;;;;;7390054;19;20019;-70
2023/02/28 04:59:46;;;;;;;9.68;6.20;;;-1.10;1.00;;;;;;7364434;19;20101;-70
2023/02/28 05:02:15;;;;;;;11.90;6.38;;;-1.20;1.00;;;;;;7365062;19;20078;-70
2023/02/28 05:04:45;;;;;;;8.52;5.72;;;-1.20;1.00;;;;;;7366150;19;20021;-70
2023/02/28 05:07:15;;;;;;;11.57;6.20;;;-1.20;1.00;;;;;;7364612;19;20011;-70
2023/02/28 05:09:48;;;;;;;9.93;6.10;;;-1.10;1.00;;;;;;7363610;19;20025;-70
2023/02/28 05:12:17;;;;;;;10.65;6.32;;;-1.10;1.00;;;;;;7385337;19;20014;-71
2023/02/28 05:14:47;;;;;;;10.57;6.60;;;-1.10;1.00;;;;;;7363978;19;20010;-71
2023/02/28 05:17:17;;;;;;;12.35;6.68;;;-1.10;1.00;;;;;;7364934;19;20010;-71
2023/02/28 05:19:47;;;;;;;10.48;6.60;;;-1.10;1.00;;;;;;7359953;19;20011;-70
2023/02/28 05:22:18;;;;;;;8.27;5.60;;;-1.20;1.00;;;;;;7363793;19;20028;-71
2023/02/28 05:24:51;;;;;;;9.93;6.72;;;-1.20;1.00;;;;;;7363915;19;20014;-71
2023/02/28 05:27:21;;;;;;;9.15;5.47;;;-1.10;1.00;;;;;;7383105;19;20042;-71
2023/02/28 05:29:50;;;;;;;9.45;5.60;;;-1.10;1.00;;;;;;7384954;19;20018;-71
2023/02/28 05:32:20;;;;;;;9.57;6.47;;;-1.10;1.00;;;;;;7361990;19;20021;-71
2023/02/28 05:34:50;;;;;;;12.00;6.30;;;-1.10;1.00;;;;;;7364120;19;20470;-71
2023/02/28 05:37:20;;;;;;;12.43;6.05;;;-1.10;1.00;;;;;;7363614;19;20367;-70
2023/02/28 05:39:54;;;;;;;11.77;6.25;;;-1.10;1.00;;;;;;7361043;19;20433;-71
2023/02/28 05:42:23;;;;;;;11.35;6.32;;;-1.10;1.00;;;;;;7361864;19;20542;-71
2023/02/28 05:44:53;;;;;;;8.30;5.57;;;-1.10;1.00;;;;;;7384560;19;20214;-71
2023/02/28 05:47:23;;;;;;;10.43;6.40;;;-1.10;1.00;;;;;;7363848;19;20038;-71
2023/02/28 05:49:53;;;;;;;10.30;6.55;;;-1.10;1.00;;;;;;7361027;19;20014;-71
2023/02/28 05:52:23;;;;;;;11.10;6.63;;;-1.10;1.00;;;;;;7364413;19;20025;-71
2023/02/28 05:54:55;;;;;;;9.57;6.35;;;-1.00;1.00;;;;;;7362698;19;20007;-70
2023/02/28 05:57:25;;;;;;;11.25;6.63;;;-1.00;1.00;;;;;;7362156;19;20007;-73
2023/02/28 05:59:55;;;;;;;10.02;5.68;;;-1.00;1.00;;;;;;7385227;19;20384;-73
2023/02/28 06:02:25;;;;;;;13.27;6.65;;;-1.00;1.00;;;;;;7360989;19;20021;-71
2023/02/28 06:04:55;;;;;;;11.55;6.82;;;-1.00;1.00;;;;;;7362329;19;20023;-71
2023/02/28 06:07:25;;;;;;;10.30;6.13;;;-1.00;1.00;;;;;;7363294;19;20033;-69
2023/02/28 06:09:57;;;;;;;11.65;6.22;;;-1.00;1.00;;;;;;7360617;19;20391;-70
2023/02/28 06:12:27;;;;;;;11.50;6.78;;;-1.00;1.00;;;;;;7362274;19;20639;-71
2023/02/28 06:14:57;;;;;;;12.27;6.40;;;-1.00;1.00;;;;;;7381870;19;20054;-71
2023/02/28 06:17:27;;;;;;;9.18;5.63;;;-1.00;1.00;;;;;;7363494;19;20037;-69
2023/02/28 06:19:57;;;;;;;10.38;6.47;;;-1.00;1.00;;;;;;7359912;19;20018;-71
2023/02/28 06:22:27;;;;;;;10.88;6.57;;;-0.90;1.00;;;;;;7361017;19;20014;-70
2023/02/28 06:24:59;;;;;;;10.70;6.25;;;-1.00;1.00;;;;;;7362498;19;20023;-70
2023/02/28 06:27:29;;;;;;;10.45;6.70;;;-0.90;1.00;;;;;;7364091;19;20014;-70
2023/02/28 06:29:59;;;;;;;10.20;5.88;;;-0.90;1.00;;;;;;7381372;19;20102;-71
2023/02/28 06:32:29;;;;;;;11.93;6.07;;;-0.90;1.00;;;;;;7361267;19;20470;-70
2023/02/28 06:34:59;;;;;;;12.63;6.28;;;-0.90;1.00;;;;;;7360581;19;20043;-71
2023/02/28 06:37:29;;;;;;;12.57;7.57;;;-0.90;1.00;;;;;;7360629;19;20371;-71
2023/02/28 06:40:01;;;;;;;14.57;8.45;;;-0.90;1.00;;;;;;7359390;19;20018;-70
2023/02/28 06:42:32;;;;;;;12.35;7.13;;;-0.80;1.00;;;;;;7359851;19;20093;-71
2023/02/28 06:45:08;;;;;;;16.02;6.80;;;-0.80;1.00;;;;;;7380141;19;20010;-71
2023/02/28 06:47:39;;;;;;;12.13;6.68;;;-0.80;1.00;;;;;;7362260;19;20050;-70
2023/02/28 06:50:11;;;;;;;11.10;6.10;;;-0.80;1.00;;;;;;7359876;19;20014;-71
2023/02/28 06:52:41;;;;;;;13.07;6.63;;;-0.80;1.00;;;;;;7359597;19;20014;-71
2023/02/28 06:55:14;;;;;;;11.55;6.88;;;-0.80;1.00;;;;;;7363958;19;20070;-71
2023/02/28 06:57:44;;;;;;;9.47;7.10;;;-0.70;1.00;;;;;;7363304;19;20187;-70
2023/02/28 07:00:15;;;;;;;10.07;6.50;;;-0.70;1.00;;;;;;7380698;19;20026;-71
2023/02/28 07:02:45;;;;;;;11.63;7.22;;;-0.70;1.00;;;;;;7358709;19;20474;-70
2023/02/28 07:05:15;;;;;;;15.30;6.32;;;-0.60;1.00;;;;;;7359647;19;20018;-71
2023/02/28 07:07:46;;;;;;;9.98;6.60;;;-0.70;1.00;;;;;;7360073;19;20014;-71
2023/02/28 07:10:19;;;;;;;13.63;7.03;;;-0.60;1.00;;;;;;7357252;19;20015;-71
2023/02/28 07:12:49;;;;;;;13.27;7.45;;;-0.60;1.00;;;;;;7360946;19;20018;-71
2023/02/28 07:15:19;;;;;;;12.48;7.53;;;-0.60;1.00;;;;;;7380571;19;20098;-71
2023/02/28 07:17:49;;;;;;;15.73;9.13;;;-0.60;1.00;;;;;;7363574;19;20030;-70
2023/02/28 07:20:19;;;;;;;13.05;6.70;;;-0.60;1.00;;;;;;7360153;19;20498;-70
2023/02/28 07:22:55;;;;;;;13.85;7.00;;;-0.60;1.00;;;;;;7358108;19;20018;-70
2023/02/28 07:25:29;;;;;;;12.45;7.30;;;-0.60;1.00;;;;;;7358869;19;20501;-71
2023/02/28 07:28:00;;;;;;;10.25;7.03;;;-0.60;1.00;;;;;;7361120;19;20018;-70
2023/02/28 07:30:29;;;;;;;11.68;6.80;;;-0.60;1.00;;;;;;7359443;19;20021;-71
2023/02/28 07:32:59;;;;;;;9.98;6.70;;;-0.70;1.00;;;;;;7380267;19;20490;-71
2023/02/28 07:35:29;;;;;;;11.40;7.82;;;-0.70;1.00;;;;;;7358804;19;20015;-71
2023/02/28 07:38:00;;;;;;;14.07;7.55;;;-0.60;1.00;;;;;;7358506;19;20101;-71
2023/02/28 07:40:33;;;;;;;14.32;7.20;;;-0.60;1.00;;;;;;7358082;19;20078;-71
2023/02/28 07:43:03;;;;;;;12.75;6.97;;;-0.60;1.00;;;;;;7359783;19;20142;-71
2023/02/28 07:45:34;;;;;;;13.02;7.47;;;-0.70;1.00;;;;;;7361404;19;20490;-70
2023/02/28 07:48:04;;;;;;;12.50;7.07;;;-0.60;1.00;;;;;;7384531;19;20018;-71
2023/02/28 07:50:34;;;;;;;12.80;7.65;;;-0.50;1.00;;;;;;7359951;19;20011;-71
2023/02/28 07:53:04;;;;;;;13.27;7.15;;;-0.60;1.00;;;;;;7361848;19;20014;-70
2023/02/28 07:55:37;;;;;;;17.80;10.18;;;-0.50;1.00;;;;;;7360308;19;20035;-70
2023/02/28 07:58:06;;;;;;;10.98;7.20;;;-0.50;1.00;;;;;;7364284;19;20470;-70
2023/02/28 08:00:36;;;;;;;12.90;7.28;;;-0.40;1.00;;;;;;7360603;19;20013;-72
2023/02/28 08:03:06;;;;;;;17.90;7.28;;;-0.50;1.00;;;;;;7379162;19;20010;-70
2023/02/28 08:05:40;;;;;;;11.40;7.13;;;-0.60;1.00;;;;;;7359293;19;20024;-70
2023/02/28 08:08:10;;;;;;;13.00;7.68;;;-0.50;1.00;;;;;;7373682;19;20057;-72
2023/02/28 08:10:43;;;;;;;17.13;8.00;;;-0.40;1.00;;;;;;7390666;19;20033;-70
2023/02/28 08:13:13;;;;;;;11.52;6.97;;;-0.40;1.00;;;;;;7391383;19;20055;-70
2023/02/28 08:15:45;;;;;;;13.32;7.45;;;-0.40;1.00;;;;;;7370878;19;20064;-70
2023/02/28 08:18:14;;;;;;;12.55;7.28;;;-0.40;1.00;;;;;;7385641;19;20147;-70
2023/02/28 08:20:44;;;;;;;16.85;7.55;;;-0.30;1.00;;;;;;7361014;19;20014;-71
2023/02/28 08:23:14;;;;;;;17.98;7.72;;;-0.40;1.00;;;;;;7363023;19;20014;-71
2023/02/28 08:25:46;;;;;;;17.35;8.35;;;-0.20;1.00;;;;;;7365233;19;20414;-71
2023/02/28 08:28:16;;;;;;;19.65;8.63;;;-0.30;1.00;;;;;;7367126;19;20021;-71
2023/02/28 08:30:46;;;;;;;12.75;8.32;;;-0.20;1.00;;;;;;7365239;19;20015;-71
2023/02/28 08:33:16;;;;;;;13.50;8.00;;;-0.30;1.00;;;;;;7387258;19;20018;-71
2023/02/28 08:35:46;;;;;;;13.32;8.63;;;-0.20;1.00;;;;;;7364444;19;20033;-71
2023/02/28 08:38:15;;;;;;;13.63;8.00;;;-0.10;1.00;;;;;;7365593;19;20392;-70
2023/02/28 08:40:48;;;;;;;15.57;8.32;;;-0.10;1.00;;;;;;7365863;19;20412;-72
2023/02/28 08:43:18;;;;;;;14.82;8.13;;;-0.20;1.00;;;;;;7362692;19;20011;-71
2023/02/28 08:45:47;;;;;;;11.48;7.32;;;-0.10;1.00;;;;;;7364220;19;20089;-70
2023/02/28 08:48:17;;;;;;;11.05;7.57;;;-0.10;1.00;;;;;;7388262;19;20018;-70
2023/02/28 08:50:57;;;;;;;15.32;8.27;;;-0.10;1.00;;;;;;7364270;19;20015;-70
2023/02/28 08:53:36;;;;;;;13.52;8.20;;;0.10;1.00;;;;;;7363933;19;20018;-71
2023/02/28 08:56:10;;;;;;;14.75;7.63;;;0.10;1.00;;;;;;7364971;19;20013;-71
2023/02/28 08:58:41;;;;;;;17.10;9.10;;;0.20;1.00;;;;;;7362109;19;20074;-71
2023/02/28 09:01:12;;;;;;;15.90;9.32;;;0.20;1.00;;;;;;7366640;19;20467;-71
2023/02/28 09:03:43;;;;;;;13.55;8.52;;;0.20;1.00;;;;;;7362567;19;20101;-69
2023/02/28 09:06:14;;;;;;;15.55;8.73;;;0.20;1.00;;;;;;7385219;19;20049;-71
2023/02/28 09:08:44;;;;;;;13.25;8.13;;;0.30;1.00;;;;;;7362557;19;20023;-71
2023/02/28 09:11:16;;;;;;;13.63;7.90;;;0.50;1.00;;;;;;7363247;19;20370;-71
2023/02/28 09:13:47;;;;;;;13.63;7.72;;;0.40;1.00;;;;;;7364049;19;20014;-69
2023/02/28 09:16:18;;;;;;;12.70;7.88;;;0.40;1.00;;;;;;7363622;19;20133;-70
2023/02/28 09:18:49;;;;;;;11.93;8.32;;;0.30;1.00;;;;;;7362081;19;20039;-71
2023/02/28 09:21:21;;;;;;;15.68;8.55;;;0.50;1.00;;;;;;7388939;19;20014;-71
2023/02/28 09:23:52;;;;;;;14.63;8.23;;;0.60;1.00;;;;;;7362244;19;20494;-72
2023/02/28 09:26:26;;;;;;;13.70;8.85;;;0.60;1.00;;;;;;7363485;19;20675;-71
2023/02/28 09:29:07;;;;;;;14.63;9.43;;;0.70;1.00;;;;;;7361061;19;20038;-71
2023/02/28 09:31:37;;;;;;;14.82;8.20;;;0.70;1.00;;;;;;7363397;19;20681;-70
2023/02/28 09:34:07;;;;;;;18.42;8.88;;;0.80;1.00;;;;;;7362018;19;20026;-71
2023/02/28 09:36:39;;;;;;;14.13;8.98;;;0.90;1.00;;;;;;7365327;19;20015;-71
2023/02/28 09:39:15;;;;;;;13.52;7.72;;;1.00;1.00;;;;;;7386428;19;20029;-70
2023/02/28 09:41:50;;;;;;;14.23;7.63;;;1.10;1.00;;;;;;7362114;19;20018;-71
2023/02/28 09:44:29;;;;;;;15.93;8.43;;;1.10;1.00;;;;;;7364748;19;20030;-71
2023/02/28 09:47:02;;;;;;;16.25;8.70;;;1.00;1.00;;;;;;7364189;19;20099;-71
2023/02/28 09:49:39;;;;;;;14.20;8.75;;;1.10;1.00;;;;;;7361023;19;20011;-71
2023/02/28 09:52:13;;;;;;;14.98;8.73;;;1.10;1.00;;;;;;7366203;19;20595;-71
2023/02/28 09:54:43;;;;;;;14.32;8.27;;;1.10;1.00;;;;;;7363077;19;20118;-70
2023/02/28 09:57:22;;;;;;;14.10;8.88;;;1.30;1.00;;;;;;7385700;19;20077;-71
2023/02/28 10:00:08;;;;;;;17.92;8.95;;;1.50;1.00;;;;;;7362361;19;20024;-71
2023/02/28 10:03:02;;;;;;;13.68;8.00;;;1.50;1.00;;;;;;7361442;19;20089;-71
2023/02/28 10:05:39;;;;;;;19.00;8.70;;;1.40;1.00;;;;;;7361564;19;20501;-70
2023/02/28 10:08:16;;;;;;;16.45;8.90;;;1.50;1.00;;;;;;7364721;19;20091;-71
2023/02/28 10:10:49;;;;;;;15.70;9.10;;;1.80;1.00;;;;;;7361730;19;20493;-71
2023/02/28 10:13:27;;;;;;;13.93;7.85;;;1.70;1.00;;;;;;7361893;19;20011;-72
2023/02/28 10:16:01;;;;;;;15.25;9.38;;;1.80;1.00;;;;;;7363680;19;20257;-72
2023/02/28 10:18:42;;;;;;;15.70;9.13;;;1.90;1.00;;;;;;7365675;19;20037;-72
2023/02/28 10:21:22;;;;;;;16.15;8.45;;;1.90;1.00;;;;;;7386047;19;20015;-71
2023/02/28 10:23:55;;;;;;;16.23;9.18;;;2.00;1.00;;;;;;7361571;19;20010;-71
2023/02/28 10:26:29;;;;;;;14.93;8.93;;;2.10;1.00;;;;;;7362162;19;20006;-71
2023/02/28 10:29:02;;;;;;;15.40;8.77;;;2.00;1.00;;;;;;7361333;19;20517;-70
2023/02/28 10:31:32;;;;;;;13.07;8.18;;;2.20;1.00;;;;;;7363825;19;20018;-71
2023/02/28 10:34:04;;;;;;;14.65;8.68;;;2.20;1.00;;;;;;7365287;19;20512;-71
2023/02/28 10:36:34;;;;;;;12.23;7.38;;;2.40;1.00;;;;;;7362847;19;20023;-71
2023/02/28 10:39:45;;;;;;;13.38;8.55;;;2.20;1.00;;;;;;7383612;19;20379;-72
2023/02/28 10:42:25;;;;;;;11.98;8.80;;;2.20;1.00;;;;;;7359993;19;20017;-71
2023/02/28 10:45:17;;;;;;;11.32;7.35;;;2.10;1.00;;;;;;7360937;19;20349;-70
2023/02/28 10:47:57;;;;;;;14.35;9.25;;;2.10;1.00;;;;;;7364782;19;20015;-71
2023/02/28 10:50:37;;;;;;;13.88;8.77;;;2.30;1.00;;;;;;7358859;19;20010;-71
2023/02/28 10:53:18;;;;;;;14.63;9.05;;;2.30;1.00;;;;;;7360581;19;20035;-71
2023/02/28 10:55:58;;;;;;;13.52;8.30;;;2.50;1.00;;;;;;7360715;19;20162;-72
2023/02/28 10:58:30;;;;;;;12.00;8.38;;;2.60;1.00;;;;;;7361751;19;20030;-70
2023/02/28 11:01:02;;;;;;;17.83;8.98;;;2.60;1.00;;;;;;7362007;19;20065;-70
2023/02/28 11:03:35;;;;;;;13.10;8.40;;;2.60;1.00;;;;;;7360739;19;20015;-72
2023/02/28 11:06:10;;;;;;;13.63;8.63;;;2.50;1.00;;;;;;7381995;19;20014;-71
2023/02/28 11:08:47;;;;;;;18.08;8.70;;;2.80;1.00;;;;;;7360552;19;20006;-72
2023/02/28 11:11:19;;;;;;;13.73;8.95;;;2.90;1.00;;;;;;7363636;19;20478;-70
2023/02/28 11:13:50;;;;;;;12.43;8.13;;;2.80;1.00;;;;;;7361385;19;20014;-71
2023/02/28 11:16:23;;;;;;;14.15;8.68;;;2.40;1.00;;;;;;7361725;19;20563;-71
2023/02/28 11:18:56;;;;;;;14.77;9.05;;;2.50;1.00;;;;;;7358211;19;20015;-71
2023/02/28 11:21:29;;;;;;;13.38;8.07;;;2.40;1.00;;;;;;7363084;19;20094;-71
2023/02/28 11:24:06;;;;;;;13.23;7.90;;;2.50;1.00;;;;;;7381108;19;20122;-71
2023/02/28 11:26:43;;;;;;;12.88;8.02;;;2.60;1.00;;;;;;7360201;19;20007;-70
2023/02/28 11:29:21;;;;;;;12.93;8.18;;;2.50;1.00;;;;;;7361673;19;20044;-71
2023/02/28 11:32:19;;;;;;;13.48;8.50;;;2.70;1.00;;;;;;7360254;19;20375;-71
2023/02/28 11:35:02;;;;;;;13.23;8.20;;;2.80;1.00;;;;;;7358852;19;20351;-70
2023/02/28 11:37:34;;;;;;;16.42;8.57;;;3.10;1.00;;;;;;7361747;19;20006;-71
2023/02/28 11:40:06;;;;;;;16.15;9.20;;;3.20;1.00;;;;;;7360679;19;20011;-71
2023/02/28 11:42:48;;;;;;;20.30;11.45;;;3.40;1.00;;;;;;7362011;19;20018;-70
2023/02/28 11:45:25;;;;;;;13.18;9.00;;;3.60;1.00;;;;;;7385548;19;20022;-70
2023/02/28 11:48:11;;;;;;;14.25;8.00;;;3.70;1.00;;;;;;7363025;19;20478;-71
2023/02/28 11:50:49;;;;;;;12.30;8.30;;;3.70;1.00;;;;;;7362309;19;20021;-71
2023/02/28 11:53:33;;;;;;;11.15;7.38;;;3.70;1.00;;;;;;7390792;19;20030;-71
2023/02/28 11:56:13;;;;;;;12.80;7.97;;;3.40;1.00;;;;;;7393719;19;20023;-70
2023/02/28 11:58:53;;;;;;;13.98;8.32;;;3.20;1.00;;;;;;7389678;19;20010;-69
2023/02/28 12:01:39;;;;;;;12.63;8.50;;;3.50;1.00;;;;;;7371462;19;20014;-70
2023/02/28 12:04:28;;;;;;;18.05;8.52;;;3.50;1.00;;;;;;7365552;19;20057;-71
2023/02/28 12:07:02;;;;;;;14.75;8.77;;;3.60;1.00;;;;;;7366466;19;20484;-70
2023/02/28 12:09:42;;;;;;;13.07;7.88;;;4.00;1.00;;;;;;7364693;19;20053;-71
2023/02/28 12:12:25;;;;;;;14.63;8.30;;;4.10;1.00;;;;;;7386839;19;20032;-71
2023/02/28 12:15:30;;;;;;;14.43;8.65;;;4.20;1.00;;;;;;7366597;19;20370;-70
2023/02/28 12:18:08;;;;;;;;;;;4.40;1.00;;;;;;7369555;19;20058;-71
2023/02/28 12:20:48;;;;;;;12.98;8.98;;;4.60;1.00;;;;;;7363408;19;20339;-71
2023/02/28 12:23:41;;;;;;;16.88;10.07;;;4.80;1.00;;;;;;7366846;19;20010;-71
2023/02/28 12:26:20;;;;;;;12.32;8.48;;;4.40;1.00;;;;;;7367148;19;20013;-71
2023/02/28 12:28:55;;;;;;;13.25;9.02;;;4.40;1.00;;;;;;7365547;19;20453;-72
2023/02/28 12:31:29;;;;;;;12.02;8.27;;;4.40;1.00;;;;;;7365622;19;20100;-70
2023/02/28 12:34:05;;;;;;;11.05;7.72;;;4.50;1.00;;;;;;7365222;19;20026;-72
2023/02/28 12:36:39;;;;;;;11.63;8.05;;;4.50;1.00;;;;;;7365136;19;20010;-71
2023/02/28 12:39:14;;;;;;;14.10;8.93;;;4.50;1.00;;;;;;7384953;19;20014;-71
2023/02/28 12:41:48;;;;;;;12.85;9.13;;;4.50;1.00;;;;;;7366923;19;20474;-71
2023/02/28 12:44:20;;;;;;;;;;;4.80;1.00;;;;;;7364424;19;20760;-71
2023/02/28 12:46:53;;;;;;;13.48;7.95;;;5.00;1.00;;;;;;7366884;19;19911;-71
2023/02/28 12:49:31;;;;;;;12.82;7.22;;;4.90;1.00;;;;;;7362875;19;20022;-70
2023/02/28 12:52:07;;;;;;;13.90;8.60;;;4.60;1.00;;;;;;7364367;19;20051;-70
2023/02/28 12:54:46;;;;;;;15.90;8.55;;;4.70;1.00;;;;;;7361953;19;20020;-71
2023/02/28 12:57:21;;;;;;;12.98;8.23;;;4.80;1.00;;;;;;7387581;19;20007;-70
2023/02/28 12:59:55;;;;;;;13.63;8.05;;;5.00;1.00;;;;;;7357801;19;20018;-71
2023/02/28 13:02:55;;;;;;;14.35;8.27;;;5.10;1.00;;;;;;7360099;19;20118;-71
2023/02/28 13:05:38;;;;;;;12.65;8.18;;;5.00;1.00;;;;;;7362072;19;20018;-71
2023/02/28 13:08:47;;;;;;;14.88;8.90;;;4.90;1.00;;;;;;7359038;19;20053;-71
2023/02/28 13:11:28;;;;;;;11.68;8.27;;;4.90;1.00;;;;;;7361591;19;20379;-72
2023/02/28 13:14:02;;;;;;;15.50;8.05;;;5.00;1.00;;;;;;7361250;19;20015;-72
2023/02/28 13:17:01;;;;;;;15.93;9.20;;;5.00;1.00;;;;;;7362743;19;20061;-70
2023/02/28 13:19:34;;;;;;;12.65;8.20;;;4.80;1.00;;;;;;7359405;19;20014;-70
2023/02/28 13:22:05;;;;;;;13.27;7.60;;;4.90;1.00;;;;;;7363123;19;20010;-71
2023/02/28 13:24:51;;;;;;;13.80;7.78;;;5.00;1.00;;;;;;7363280;19;20113;-71
2023/02/28 13:27:39;;;;;;;12.60;7.50;;;5.10;1.00;;;;;;7385894;19;20122;-73
2023/02/28 13:30:39;;;;;;;11.95;7.85;;;5.40;1.00;;;;;;7386700;19;20636;-70
2023/02/28 13:33:27;;;;;;;13.13;8.65;;;5.10;1.00;;;;;;7362189;19;20737;-70